createdAt,value
2019-01-04T00:00:27.195Z,10.43
2019-01-04T00:02:54.626Z,10.53
2019-01-04T00:05:22.092Z,12.33
2019-01-04T00:07:49.525Z,10.83
2019-01-04T00:10:16.996Z,11.50
2019-01-04T00:12:44.429Z,11.93
2019-01-04T00:15:11.898Z,11.40
2019-01-04T00:17:39.361Z,11.77
2019-01-04T00:20:06.822Z,11.73
2019-01-04T00:22:34.288Z,11.86
2019-01-04T00:25:01.719Z,10.93
2019-01-04T00:27:29.421Z,11.45
2019-01-04T00:29:56.856Z,11.40
2019-01-04T00:32:24.316Z,11.52
2019-01-04T00:34:51.757Z,10.23
2019-01-04T00:37:19.261Z,11.53
2019-01-04T00:39:46.780Z,10.10
2019-01-04T00:42:14.275Z,10.15
2019-01-04T00:44:41.719Z,9.97
2019-01-04T00:47:10.085Z,10.80
2019-01-04T00:49:37.616Z,9.55
2019-01-04T00:52:05.055Z,10.27
2019-01-04T00:54:32.506Z,9.98
2019-01-04T00:57:02.898Z,10.30
2019-01-04T00:59:34.888Z,9.75
2019-01-04T01:02:03.912Z,11.25
2019-01-04T01:04:53.929Z,11.55
2019-01-04T01:07:22.243Z,10.98
2019-01-04T01:10:01.599Z,12.13
2019-01-04T01:12:30.437Z,12.65
2019-01-04T01:15:03.899Z,13.43
2019-01-04T01:17:38.031Z,13.93
2019-01-04T01:20:08.334Z,15.10
2019-01-04T01:22:58.329Z,14.97
2019-01-04T01:25:26.561Z,15.10
2019-01-04T01:28:14.787Z,14.43
2019-01-04T01:30:54.652Z,14.43
2019-01-04T01:33:29.270Z,15.47
2019-01-04T01:36:14.232Z,17.80
2019-01-04T01:38:59.467Z,17.57
2019-01-04T01:41:50.281Z,17.60
2019-01-04T01:44:29.517Z,17.80
2019-01-04T01:46:59.688Z,19.80
2019-01-04T01:49:49.785Z,19.27
2019-01-04T01:52:21.918Z,17.73
2019-01-04T01:54:49.378Z,17.33
2019-01-04T01:57:16.916Z,17.83
2019-01-04T01:59:44.367Z,18.90
2019-01-04T02:02:11.807Z,17.87
2019-01-04T02:04:39.265Z,15.85
2019-01-04T02:07:06.714Z,16.20
2019-01-04T02:09:34.168Z,15.80
2019-01-04T02:12:01.648Z,15.45
2019-01-04T02:14:29.755Z,17.05
2019-01-04T02:16:57.226Z,16.90
2019-01-04T02:19:24.673Z,17.40
2019-01-04T02:21:52.181Z,19.43
2019-01-04T02:24:20.629Z,19.67
2019-01-04T02:26:48.156Z,18.83
2019-01-04T02:29:15.617Z,20.77
2019-01-04T02:31:43.073Z,21.45
2019-01-04T02:34:10.523Z,20.73
2019-01-04T02:36:37.963Z,20.12
2019-01-04T02:39:05.403Z,22.17
2019-01-04T02:41:32.881Z,21.70
2019-01-04T02:44:00.300Z,21.87
2019-01-04T02:46:27.759Z,21.67
2019-01-04T02:48:55.204Z,21.43
2019-01-04T02:51:22.688Z,20.52
2019-01-04T02:53:50.112Z,22.23
2019-01-04T02:56:17.559Z,21.83
2019-01-04T02:58:45.027Z,23.07
2019-01-04T03:01:12.891Z,23.38
2019-01-04T03:03:40.363Z,24.98
2019-01-04T03:06:07.795Z,25.50
2019-01-04T03:08:35.290Z,25.23
2019-01-04T03:11:02.741Z,24.90
2019-01-04T03:13:30.190Z,26.33
2019-01-04T03:15:57.641Z,26.17
2019-01-04T03:18:25.120Z,28.10
2019-01-04T03:20:52.574Z,27.73
2019-01-04T03:23:20.046Z,27.25
2019-01-04T03:25:47.504Z,26.50
2019-01-04T03:28:14.994Z,25.73
2019-01-04T03:30:42.437Z,27.80
2019-01-04T03:33:09.901Z,27.27
2019-01-04T03:35:37.364Z,26.67
2019-01-04T03:38:04.823Z,26.50
2019-01-04T03:40:32.295Z,26.03
2019-01-04T03:42:59.943Z,23.90
2019-01-04T03:45:27.424Z,26.17
2019-01-04T03:47:54.865Z,26.65
2019-01-04T03:50:22.311Z,26.03
2019-01-04T03:52:49.785Z,24.85
2019-01-04T03:55:17.250Z,25.17
2019-01-04T03:57:44.725Z,23.90
2019-01-04T04:00:12.183Z,26.70
2019-01-04T04:02:39.624Z,22.08
2019-01-04T04:05:07.151Z,25.03
2019-01-04T04:07:34.602Z,26.37
2019-01-04T04:10:02.062Z,26.43
2019-01-04T04:12:30.032Z,22.77
2019-01-04T04:14:57.479Z,23.00
2019-01-04T04:17:24.931Z,25.92
2019-01-04T04:19:52.413Z,22.27
2019-01-04T04:22:19.888Z,22.90
2019-01-04T04:24:47.325Z,22.08
2019-01-04T04:27:14.781Z,21.80
2019-01-04T04:29:42.229Z,21.00
2019-01-04T04:32:09.708Z,20.20
2019-01-04T04:34:38.588Z,19.52
2019-01-04T04:37:06.133Z,17.20
2019-01-04T04:39:33.568Z,19.23
2019-01-04T04:42:01.017Z,19.17
2019-01-04T04:44:28.483Z,18.27
2019-01-04T04:46:55.957Z,17.02
2019-01-04T04:49:23.386Z,16.87
2019-01-04T04:51:50.807Z,16.53
2019-01-04T04:54:18.266Z,17.53
2019-01-04T04:56:45.727Z,16.87
2019-01-04T04:59:13.174Z,15.45
2019-01-04T05:01:40.621Z,16.47
2019-01-04T05:04:08.092Z,17.87
2019-01-04T05:06:35.519Z,18.43
2019-01-04T05:09:02.948Z,17.50
2019-01-04T05:11:30.422Z,18.87
2019-01-04T05:13:57.875Z,18.77
2019-01-04T05:16:25.330Z,17.73
2019-01-04T05:18:52.774Z,18.63
2019-01-04T05:21:20.233Z,18.58
2019-01-04T05:23:47.702Z,18.92
2019-01-04T05:26:15.182Z,19.57
2019-01-04T05:28:42.627Z,19.20
2019-01-04T05:31:10.090Z,19.83
2019-01-04T05:33:37.545Z,20.13
2019-01-04T05:36:05.005Z,18.10
2019-01-04T05:38:32.465Z,19.30
2019-01-04T05:41:00.308Z,19.45
2019-01-04T05:43:27.758Z,20.62
2019-01-04T05:45:55.218Z,19.47
2019-01-04T05:48:22.664Z,18.67
2019-01-04T05:50:50.141Z,19.02
2019-01-04T05:53:17.577Z,19.52
2019-01-04T05:55:45.007Z,18.65
2019-01-04T05:58:12.483Z,18.23
2019-01-04T06:00:39.946Z,17.83
2019-01-04T06:03:07.424Z,18.20
2019-01-04T06:05:35.930Z,18.52
2019-01-04T06:08:03.399Z,18.63
2019-01-04T06:10:30.900Z,19.27
2019-01-04T06:12:58.353Z,18.10
2019-01-04T06:15:25.819Z,18.83
2019-01-04T06:17:53.365Z,18.97
2019-01-04T06:20:20.905Z,21.90
2019-01-04T06:22:48.379Z,18.93
2019-01-04T06:25:15.856Z,20.23
2019-01-04T06:27:44.175Z,19.60
2019-01-04T06:30:10.832Z,20.07
2019-01-04T06:32:38.284Z,18.73
2019-01-04T06:35:05.727Z,18.80
2019-01-04T06:37:33.189Z,18.77
2019-01-04T06:40:00.634Z,20.10
2019-01-04T06:42:28.093Z,18.13
2019-01-04T06:44:56.549Z,17.03
2019-01-04T06:47:24.094Z,17.97
2019-01-04T06:49:51.549Z,18.47
2019-01-04T06:52:19.047Z,17.13
2019-01-04T06:54:58.184Z,16.30
2019-01-04T06:57:26.243Z,16.73
2019-01-04T06:59:53.693Z,17.60
2019-01-04T07:02:21.143Z,15.57
2019-01-04T07:04:48.584Z,15.03
2019-01-04T07:07:16.046Z,15.07
2019-01-04T07:09:43.478Z,15.37
2019-01-04T07:12:10.935Z,14.77
2019-01-04T07:14:38.407Z,15.25
2019-01-04T07:17:05.841Z,15.43
2019-01-04T07:19:33.302Z,15.73
2019-01-04T07:22:00.756Z,15.43
2019-01-04T07:24:28.233Z,15.97
2019-01-04T07:26:55.717Z,16.43
2019-01-04T07:29:23.164Z,15.47
2019-01-04T07:31:50.619Z,13.93
2019-01-04T07:34:18.245Z,14.20
2019-01-04T07:36:45.550Z,14.23
2019-01-04T07:39:13.020Z,13.60
2019-01-04T07:41:40.478Z,14.60
2019-01-04T07:44:07.923Z,14.97
2019-01-04T07:46:35.397Z,15.50
2019-01-04T07:49:02.833Z,14.20
2019-01-04T07:51:30.540Z,14.23
2019-01-04T07:53:58.003Z,14.20
2019-01-04T07:56:25.493Z,16.53
2019-01-04T07:58:53.768Z,17.60
2019-01-04T08:01:21.338Z,17.93
2019-01-04T08:03:48.819Z,18.33
2019-01-04T08:06:16.401Z,22.00
2019-01-04T08:08:43.918Z,18.00
2019-01-04T08:11:11.401Z,17.73
2019-01-04T08:13:38.868Z,17.98
2019-01-04T08:16:06.359Z,17.40
2019-01-04T08:18:33.840Z,17.53
2019-01-04T08:21:01.301Z,17.40
2019-01-04T08:23:28.758Z,17.45
2019-01-04T08:25:56.251Z,18.90
2019-01-04T08:28:23.739Z,19.00
2019-01-04T08:30:51.307Z,17.67
2019-01-04T08:33:18.752Z,18.37
2019-01-04T08:35:46.197Z,19.15
2019-01-04T08:38:13.694Z,18.27
2019-01-04T08:40:41.131Z,18.87
2019-01-04T08:43:08.585Z,20.88
2019-01-04T08:45:36.058Z,21.30
2019-01-04T08:48:03.496Z,19.08
2019-01-04T08:50:30.943Z,21.83
2019-01-04T08:52:58.362Z,21.00
2019-01-04T08:55:25.836Z,21.47
2019-01-04T08:57:53.278Z,18.60
2019-01-04T09:00:20.748Z,25.30
2019-01-04T09:02:48.197Z,23.87
2019-01-04T09:05:16.159Z,24.15
2019-01-04T09:07:44.470Z,21.33
2019-01-04T09:10:11.920Z,23.45
2019-01-04T09:12:39.364Z,20.87
2019-01-04T09:15:06.797Z,21.83
2019-01-04T09:17:34.260Z,22.57
2019-01-04T09:20:01.698Z,22.37
2019-01-04T09:22:29.147Z,19.57
2019-01-04T09:24:56.586Z,19.70
2019-01-04T09:27:24.046Z,18.57
2019-01-04T09:29:51.499Z,19.50
2019-01-04T09:32:18.959Z,19.73
2019-01-04T09:34:46.392Z,21.20
2019-01-04T09:37:13.847Z,22.13
2019-01-04T09:39:41.305Z,18.60
2019-01-04T09:42:11.267Z,16.55
2019-01-04T09:44:40.034Z,17.42
2019-01-04T09:47:07.664Z,14.38
2019-01-04T09:49:35.142Z,14.20
2019-01-04T09:52:03.232Z,16.63
2019-01-04T09:54:31.444Z,17.55
2019-01-04T09:57:00.028Z,17.43
2019-01-04T09:59:28.110Z,14.57
2019-01-04T10:01:56.444Z,15.20
2019-01-04T10:04:24.668Z,15.27
2019-01-04T10:06:52.835Z,14.97
2019-01-04T10:09:20.478Z,15.13
2019-01-04T10:11:47.991Z,15.15
2019-01-04T10:14:15.454Z,15.93
2019-01-04T10:16:42.922Z,13.93
2019-01-04T10:19:10.351Z,15.53
2019-01-04T10:21:37.807Z,18.65
2019-01-04T10:24:05.278Z,15.70
2019-01-04T10:26:32.731Z,14.13
2019-01-04T10:29:01.061Z,13.98
2019-01-04T10:31:28.510Z,13.57
2019-01-04T10:33:56.002Z,13.60
2019-01-04T10:36:23.440Z,13.83
2019-01-04T10:38:50.895Z,12.82
2019-01-04T10:41:18.386Z,13.48
2019-01-04T10:43:45.857Z,14.98
2019-01-04T10:46:16.473Z,15.97
2019-01-04T10:48:43.936Z,13.05
2019-01-04T10:51:11.371Z,14.40
2019-01-04T10:53:38.846Z,14.32
2019-01-04T10:56:06.286Z,15.43
2019-01-04T10:58:34.874Z,13.53
2019-01-04T11:01:02.387Z,13.83
2019-01-04T11:03:29.816Z,13.27
2019-01-04T11:05:57.298Z,12.83
2019-01-04T11:08:24.781Z,12.57
2019-01-04T11:10:52.979Z,13.10
2019-01-04T11:13:20.546Z,12.63
2019-01-04T11:15:47.984Z,13.60
2019-01-04T11:18:15.432Z,12.32
2019-01-04T11:20:42.873Z,11.83
2019-01-04T11:23:31.829Z,11.02
2019-01-04T11:26:03.743Z,10.50
2019-01-04T11:28:34.707Z,11.30
2019-01-04T11:31:06.843Z,11.13
2019-01-04T11:33:34.268Z,11.73
2019-01-04T11:36:32.079Z,11.87
2019-01-04T11:39:01.967Z,8.93
2019-01-04T11:41:36.903Z,11.05
2019-01-04T11:44:17.707Z,9.53
2019-01-04T11:46:46.595Z,8.57
2019-01-04T11:49:40.984Z,9.60
2019-01-04T11:52:10.974Z,9.88
2019-01-04T11:54:38.735Z,9.77
2019-01-04T11:57:06.431Z,10.15
2019-01-04T11:59:34.040Z,9.65
2019-01-04T12:02:01.515Z,9.43
2019-01-04T12:04:28.957Z,8.63
2019-01-04T12:06:56.456Z,8.07
2019-01-04T12:09:23.874Z,8.97
2019-01-04T12:11:52.408Z,7.73
2019-01-04T12:14:19.766Z,8.33
2019-01-04T12:16:47.213Z,8.00
2019-01-04T12:19:14.712Z,9.13
2019-01-04T12:21:42.133Z,7.30
2019-01-04T12:24:10.521Z,5.13
2019-01-04T12:26:38.031Z,6.27
2019-01-04T12:29:06.377Z,7.20
2019-01-04T12:31:32.979Z,6.50
2019-01-04T12:34:01.416Z,7.55
2019-01-04T12:36:29.754Z,8.40
2019-01-04T12:38:57.202Z,7.57
2019-01-04T12:41:24.672Z,8.38
2019-01-04T12:43:52.107Z,7.37
2019-01-04T12:46:19.563Z,7.10
2019-01-04T12:48:47.050Z,9.27
2019-01-04T12:51:14.506Z,8.38
2019-01-04T12:53:41.977Z,11.90
2019-01-04T12:56:09.480Z,9.70
2019-01-04T12:58:36.950Z,10.30
2019-01-04T13:01:04.579Z,8.70
2019-01-04T13:03:32.030Z,9.70
2019-01-04T13:05:59.503Z,11.47
2019-01-04T13:08:26.974Z,12.73
2019-01-04T13:10:55.227Z,11.10
2019-01-04T13:13:22.694Z,13.43
2019-01-04T13:15:50.149Z,15.83
2019-01-04T13:18:17.597Z,10.60
2019-01-04T13:20:45.461Z,11.27
2019-01-04T13:23:13.002Z,13.05
2019-01-04T13:25:40.476Z,13.43
2019-01-04T13:28:07.958Z,11.63
2019-01-04T13:30:35.383Z,12.13
2019-01-04T13:33:02.847Z,12.23
2019-01-04T13:35:30.328Z,11.93
2019-01-04T13:37:58.064Z,14.27
2019-01-04T13:40:25.564Z,13.17
2019-01-04T13:42:53.018Z,14.67
2019-01-04T13:45:21.279Z,12.27
2019-01-04T13:47:48.762Z,12.97
2019-01-04T13:50:16.201Z,13.13
2019-01-04T13:52:43.690Z,15.60
2019-01-04T13:55:11.315Z,16.65
2019-01-04T13:57:38.804Z,15.57
2019-01-04T14:00:07.167Z,15.80
2019-01-04T14:02:35.003Z,13.70
2019-01-04T14:05:02.777Z,16.90
2019-01-04T14:07:30.244Z,18.07
2019-01-04T14:09:57.872Z,18.43
2019-01-04T14:12:25.305Z,17.67
2019-01-04T14:14:52.911Z,17.33
2019-01-04T14:17:20.362Z,18.20
2019-01-04T14:19:47.840Z,19.10
2019-01-04T14:22:15.296Z,18.50
2019-01-04T14:24:42.747Z,16.70
2019-01-04T14:27:10.227Z,20.53
2019-01-04T14:29:37.728Z,18.40
2019-01-04T14:32:05.602Z,18.60
2019-01-04T14:34:33.169Z,18.03
2019-01-04T14:37:00.633Z,18.37
2019-01-04T14:39:28.113Z,17.97
2019-01-04T14:41:55.568Z,20.27
2019-01-04T14:44:23.018Z,20.77
2019-01-04T14:46:50.513Z,16.20
2019-01-04T14:49:17.955Z,24.37
2019-01-04T14:51:45.423Z,20.12
2019-01-04T14:54:12.850Z,20.27
2019-01-04T14:56:40.295Z,22.40
2019-01-04T14:59:07.744Z,20.43
2019-01-04T15:01:35.203Z,22.10
2019-01-04T15:04:03.049Z,19.75
2019-01-04T15:06:30.531Z,21.23
2019-01-04T15:08:58.005Z,19.23
2019-01-04T15:11:25.462Z,20.33
2019-01-04T15:13:52.905Z,20.13
2019-01-04T15:16:20.420Z,19.00
2019-01-04T15:18:48.867Z,18.23
2019-01-04T15:21:16.331Z,18.77
2019-01-04T15:23:43.794Z,20.25
2019-01-04T15:26:11.284Z,19.27
2019-01-04T15:28:38.768Z,23.67
2019-01-04T15:31:06.209Z,20.25
2019-01-04T15:33:33.663Z,22.20
2019-01-04T15:36:01.111Z,20.40
2019-01-04T15:38:28.614Z,20.43
2019-01-04T15:40:56.135Z,16.30
2019-01-04T15:43:23.598Z,19.02
2019-01-04T15:45:51.136Z,24.50
2019-01-04T15:48:18.717Z,19.30
2019-01-04T15:50:46.207Z,21.25
2019-01-04T15:53:13.804Z,19.23
2019-01-04T15:55:41.404Z,17.45
2019-01-04T15:58:08.843Z,19.57
2019-01-04T16:00:36.361Z,22.40
2019-01-04T16:03:03.817Z,19.03
2019-01-04T16:05:31.244Z,13.70
2019-01-04T16:07:58.983Z,19.47
2019-01-04T16:10:26.624Z,19.97
2019-01-04T16:12:54.125Z,21.73
2019-01-04T16:15:21.587Z,19.48
2019-01-04T16:17:49.055Z,23.83
2019-01-04T16:20:16.543Z,22.20
2019-01-04T16:22:44.247Z,24.73
2019-01-04T16:25:11.916Z,23.77
2019-01-04T16:27:39.552Z,22.37
2019-01-04T16:30:07.886Z,21.23
2019-01-04T16:32:35.421Z,25.00
2019-01-04T16:35:03.831Z,21.23
2019-01-04T16:37:31.516Z,19.20
2019-01-04T16:39:59.074Z,25.13
2019-01-04T16:42:26.660Z,23.07
2019-01-04T16:44:54.159Z,26.00
2019-01-04T16:47:22.135Z,25.13
2019-01-04T16:49:50.489Z,25.70
2019-01-04T16:52:18.151Z,15.90
2019-01-04T16:54:45.646Z,26.93
2019-01-04T16:57:13.275Z,23.02
2019-01-04T16:59:40.952Z,21.97
2019-01-04T17:02:08.414Z,22.17
2019-01-04T17:04:36.025Z,24.63
2019-01-04T17:07:04.075Z,26.50
2019-01-04T17:09:31.626Z,29.17
2019-01-04T17:11:59.146Z,24.03
2019-01-04T17:14:27.235Z,30.03
2019-01-04T17:16:54.763Z,29.37
2019-01-04T17:19:22.276Z,31.48
2019-01-04T17:21:49.715Z,26.97
2019-01-04T17:24:17.303Z,25.23
2019-01-04T17:26:44.929Z,28.17
2019-01-04T17:29:13.929Z,29.17
2019-01-04T17:31:41.465Z,30.80
2019-01-04T17:34:08.943Z,35.03
2019-01-04T17:36:36.455Z,30.53
2019-01-04T17:39:04.525Z,35.70
2019-01-04T17:41:31.961Z,30.30
2019-01-04T17:43:59.433Z,31.10
2019-01-04T17:46:26.910Z,37.40
2019-01-04T17:48:54.608Z,33.77
2019-01-04T17:51:22.237Z,34.50
2019-01-04T17:53:49.689Z,35.80
2019-01-04T17:56:17.419Z,30.77
2019-01-04T17:58:45.308Z,28.65
2019-01-04T18:01:13.083Z,33.38
2019-01-04T18:03:40.534Z,32.50
2019-01-04T18:06:08.017Z,33.97
2019-01-04T18:08:35.447Z,35.60
2019-01-04T18:11:02.905Z,31.60
2019-01-04T18:13:30.758Z,38.97
2019-01-04T18:15:59.686Z,40.20
2019-01-04T18:18:27.527Z,44.27
2019-01-04T18:20:55.158Z,47.97
2019-01-04T18:23:22.712Z,38.20
2019-01-04T18:25:50.186Z,42.22
2019-01-04T18:28:17.694Z,43.75
2019-01-04T18:30:45.202Z,41.40
2019-01-04T18:33:13.796Z,45.85
2019-01-04T18:35:41.320Z,36.58
2019-01-04T18:38:08.807Z,49.23
2019-01-04T18:40:36.505Z,38.10
2019-01-04T18:43:05.243Z,51.22
2019-01-04T18:45:32.863Z,43.17
2019-01-04T18:48:00.351Z,39.70
2019-01-04T18:50:27.828Z,44.00
2019-01-04T18:52:55.283Z,43.13
2019-01-04T18:55:22.754Z,45.00
2019-01-04T18:57:50.249Z,40.20
2019-01-04T19:00:17.747Z,42.57
2019-01-04T19:02:45.202Z,41.87
2019-01-04T19:05:13.874Z,41.00
2019-01-04T19:07:41.937Z,41.90
2019-01-04T19:10:10.295Z,39.40
2019-01-04T19:12:37.841Z,38.07
2019-01-04T19:15:05.342Z,36.43
2019-01-04T19:17:32.830Z,38.40
2019-01-04T19:20:00.409Z,36.42
2019-01-04T19:22:28.413Z,39.60
2019-01-04T19:24:55.935Z,37.00
2019-01-04T19:27:23.389Z,37.30
2019-01-04T19:29:50.866Z,41.50
2019-01-04T19:32:18.345Z,43.03
2019-01-04T19:34:45.814Z,43.60
2019-01-04T19:37:13.323Z,45.33
2019-01-04T19:39:40.822Z,50.20
2019-01-04T19:42:08.288Z,42.27
2019-01-04T19:44:35.727Z,50.37
2019-01-04T19:47:03.221Z,50.67
2019-01-04T19:49:31.398Z,57.90
2019-01-04T19:51:58.916Z,50.27
2019-01-04T19:54:26.383Z,54.23
2019-01-04T19:56:53.853Z,46.57
2019-01-04T19:59:21.331Z,52.00
2019-01-04T20:01:48.791Z,50.33
2019-01-04T20:04:16.250Z,50.73
2019-01-04T20:13:54.288Z,60.38
2019-01-04T20:16:41.875Z,46.50
2019-01-04T20:19:12.195Z,43.20
2019-01-04T20:21:54.445Z,39.47
2019-01-04T20:24:24.487Z,39.35
2019-01-04T20:26:51.925Z,34.87
2019-01-04T20:29:20.181Z,33.93
2019-01-04T20:31:53.323Z,38.33
2019-01-04T20:34:36.538Z,36.80
2019-01-04T20:37:20.657Z,32.53
2019-01-04T20:40:06.918Z,36.40
2019-01-04T20:42:37.915Z,41.73
2019-01-04T20:45:06.986Z,35.65
2019-01-04T20:47:40.112Z,39.57
2019-01-04T20:50:12.642Z,37.27
2019-01-04T20:52:56.769Z,36.07
2019-01-04T20:55:40.188Z,29.60
2019-01-04T20:58:10.111Z,36.27
2019-01-04T21:00:43.222Z,33.33
2019-01-04T21:03:16.204Z,31.60
2019-01-04T21:05:58.748Z,31.00
2019-01-04T21:08:31.767Z,29.23
2019-01-04T21:11:04.997Z,31.92
2019-01-04T21:13:49.201Z,33.00
2019-01-04T21:16:36.427Z,32.97
2019-01-04T21:19:10.322Z,34.43
2019-01-04T21:21:43.391Z,29.33
2019-01-04T21:24:17.361Z,33.77
2019-01-04T21:26:59.841Z,25.80
2019-01-04T21:29:31.600Z,29.23
2019-01-04T21:32:14.043Z,32.33
2019-01-04T21:34:44.319Z,28.77
2019-01-04T21:37:29.481Z,29.27
2019-01-04T21:40:02.977Z,31.63
2019-01-04T21:42:45.372Z,31.45
2019-01-04T21:45:18.674Z,29.43
2019-01-04T21:47:50.678Z,26.10
2019-01-04T21:50:23.662Z,26.50
2019-01-04T21:52:55.512Z,28.63
2019-01-04T21:55:25.875Z,26.67
2019-01-04T21:57:59.026Z,29.43
2019-01-04T22:00:36.377Z,26.52
2019-01-04T22:03:22.763Z,24.60
2019-01-04T22:06:08.961Z,24.67
2019-01-04T22:08:36.785Z,25.64
2019-01-04T22:11:09.763Z,28.80
2019-01-04T22:13:56.635Z,24.93
2019-01-04T22:16:25.969Z,25.20
2019-01-04T22:18:58.925Z,30.90
2019-01-04T22:21:31.349Z,25.80
2019-01-04T22:24:04.458Z,26.83
2019-01-04T22:26:34.851Z,30.13
2019-01-04T22:29:17.207Z,27.85
2019-01-04T22:31:46.338Z,27.77
2019-01-04T22:34:24.631Z,29.90
2019-01-04T22:37:07.271Z,27.95
2019-01-04T22:39:37.217Z,32.33
2019-01-04T22:42:23.458Z,26.50
2019-01-04T22:45:09.804Z,31.10
2019-01-04T22:47:38.355Z,28.70
2019-01-04T22:50:25.528Z,31.23
2019-01-04T22:52:58.905Z,28.53
2019-01-04T22:55:27.367Z,30.90
2019-01-04T22:58:00.494Z,31.70
2019-01-04T23:00:29.633Z,29.03
2019-01-04T23:03:14.824Z,37.37
2019-01-04T23:05:42.259Z,36.03
2019-01-04T23:08:10.100Z,31.93
2019-01-04T23:10:44.035Z,33.00
2019-01-04T23:13:13.333Z,39.17
2019-01-04T23:15:58.607Z,31.67
2019-01-04T23:18:27.903Z,35.20
2019-01-04T23:21:00.890Z,33.83
2019-01-04T23:23:30.730Z,35.83
2019-01-04T23:26:03.835Z,38.73
2019-01-04T23:28:34.673Z,46.37
2019-01-04T23:31:07.794Z,36.53
2019-01-04T23:33:42.011Z,39.87
2019-01-04T23:36:27.265Z,34.67
2019-01-04T23:39:09.604Z,34.17
2019-01-04T23:41:43.336Z,43.35
2019-01-04T23:44:22.416Z,42.27
2019-01-04T23:46:51.759Z,36.70
2019-01-04T23:49:22.757Z,48.80
2019-01-04T23:51:55.774Z,35.93
2019-01-04T23:54:33.878Z,32.83
2019-01-04T23:57:16.240Z,38.38
2019-01-04T23:59:49.179Z,36.27
